Time,TemperatureF,DewpointF,PressureIn,WindDirection,WindDirectionDegrees,WindSpeedMPH,WindSpeedGustMPH,Humidity,HourlyPrecipIn,Conditions,Clouds,dailyrainin,SoftwareType,DateUTC
2013-06-12 00:02:00,77.9,68.2,29.89,SSW,203,4.0,5.0,72,0.00,,,0.00,meteohub,2013-06-12 05:02:00,
2013-06-12 00:07:00,77.9,68.2,29.89,South,180,2.0,5.0,72,0.00,,,0.00,meteohub,2013-06-12 05:07:00,
2013-06-12 00:12:00,77.9,68.2,29.89,WSW,248,2.0,5.0,72,0.00,,,0.00,meteohub,2013-06-12 05:12:00,
2013-06-12 00:17:00,77.7,68.0,29.89,South,180,3.0,7.0,72,0.00,,,0.00,meteohub,2013-06-12 05:17:00,
2013-06-12 00:22:00,77.5,68.2,29.90,South,180,3.0,7.0,73,0.00,,,0.00,meteohub,2013-06-12 05:22:00,
2013-06-12 00:27:00,77.5,68.2,29.90,WSW,248,2.0,7.0,73,0.00,,,0.00,meteohub,2013-06-12 05:27:00,
2013-06-12 00:32:00,77.4,68.0,29.90,South,180,3.0,4.0,73,0.00,,,0.00,meteohub,2013-06-12 05:32:00,
2013-06-12 00:37:00,77.5,68.2,29.90,SSW,203,4.0,4.0,73,0.00,,,0.00,meteohub,2013-06-12 05:37:00,
2013-06-12 00:43:00,77.4,68.0,29.90,South,180,4.0,4.0,73,0.00,,,0.00,meteohub,2013-06-12 05:43:00,
2013-06-12 00:48:00,77.0,67.6,29.90,South,180,0.0,5.0,73,0.00,,,0.00,meteohub,2013-06-12 05:48:00,
2013-06-12 00:53:00,77.0,67.6,29.90,South,180,2.0,5.0,73,0.00,,,0.00,meteohub,2013-06-12 05:53:00,
2013-06-12 00:58:00,76.6,67.6,29.90,SSE,158,0.0,5.0,74,0.00,,,0.00,meteohub,2013-06-12 05:58:00,
2013-06-12 01:03:00,76.8,67.8,29.90,SSW,203,0.0,3.0,74,0.00,,,0.00,meteohub,2013-06-12 06:03:00,
2013-06-12 01:08:00,76.6,67.6,29.90,South,180,2.0,5.0,74,0.00,,,0.00,meteohub,2013-06-12 06:08:00,
2013-06-12 01:13:00,76.3,67.5,29.90,SE,135,2.0,5.0,74,0.00,,,0.00,meteohub,2013-06-12 06:13:00,
2013-06-12 01:18:00,76.5,68.0,29.90,SSE,158,0.0,5.0,75,0.00,,,0.00,meteohub,2013-06-12 06:18:00,
2013-06-12 01:23:00,76.3,67.8,29.90,West,270,0.0,3.0,75,0.00,,,0.00,meteohub,2013-06-12 06:23:00,
2013-06-12 01:28:00,76.3,67.8,29.90,South,180,3.0,3.0,75,0.00,,,0.00,meteohub,2013-06-12 06:28:00,
2013-06-12 01:33:00,76.1,67.6,29.90,ESE,113,0.0,3.0,75,0.00,,,0.00,meteohub,2013-06-12 06:33:00,
2013-06-12 01:38:00,75.9,67.8,29.91,WSW,248,0.0,3.0,76,0.00,,,0.00,meteohub,2013-06-12 06:38:00,
2013-06-12 01:43:00,76.1,68.0,29.91,ENE,68,0.0,3.0,76,0.00,,,0.00,meteohub,2013-06-12 06:43:00,
2013-06-12 01:48:00,75.9,67.8,29.91,SE,135,0.0,0.0,76,0.00,,,0.00,meteohub,2013-06-12 06:48:00,
2013-06-12 01:53:00,75.7,67.6,29.91,SE,135,0.0,0.0,76,0.00,,,0.00,meteohub,2013-06-12 06:53:00,
2013-06-12 01:58:00,75.6,67.5,29.90,SE,135,0.0,0.0,76,0.00,,,0.00,meteohub,2013-06-12 06:58:00,
2013-06-12 02:03:00,75.4,67.3,29.90,SE,135,0.0,0.0,76,0.00,,,0.00,meteohub,2013-06-12 07:03:00,
2013-06-12 02:08:00,75.4,67.3,29.90,ESE,113,0.0,0.0,76,0.00,,,0.00,meteohub,2013-06-12 07:08:00,
2013-06-12 02:13:00,75.4,67.6,29.90,ESE,113,0.0,0.0,77,0.00,,,0.00,meteohub,2013-06-12 07:13:00,
2013-06-12 02:18:00,75.4,67.6,29.89,SE,135,0.0,0.0,77,0.00,,,0.00,meteohub,2013-06-12 07:18:00,
2013-06-12 02:23:00,75.0,67.3,29.90,ESE,113,0.0,0.0,77,0.00,,,0.00,meteohub,2013-06-12 07:23:00,
2013-06-12 02:28:00,75.0,67.3,29.90,SSE,158,0.0,0.0,77,0.00,,,0.00,meteohub,2013-06-12 07:28:00,
2013-06-12 02:33:00,74.7,67.3,29.90,SW,225,0.0,0.0,78,0.00,,,0.00,meteohub,2013-06-12 07:33:00,
2013-06-12 02:38:00,74.7,67.3,29.90,ESE,113,0.0,0.0,78,0.00,,,0.00,meteohub,2013-06-12 07:38:00,
2013-06-12 02:43:00,74.7,67.3,29.90,SE,135,0.0,0.0,78,0.00,,,0.00,meteohub,2013-06-12 07:43:00,
2013-06-12 02:48:00,74.5,67.5,29.90,SW,225,0.0,0.0,79,0.00,,,0.00,meteohub,2013-06-12 07:48:00,
2013-06-12 02:53:00,74.1,67.1,29.90,SE,135,0.0,0.0,79,0.00,,,0.00,meteohub,2013-06-12 07:53:00,
2013-06-12 02:58:00,74.3,67.3,29.88,SE,135,0.0,0.0,79,0.00,,,0.00,meteohub,2013-06-12 07:58:00,
2013-06-12 03:03:00,74.1,67.1,29.88,SE,135,0.0,0.0,79,0.00,,,0.00,meteohub,2013-06-12 08:03:00,
2013-06-12 03:08:00,73.9,67.5,29.88,SE,135,0.0,0.0,80,0.00,,,0.00,meteohub,2013-06-12 08:08:00,
2013-06-12 03:13:00,73.9,67.5,29.88,SE,135,0.0,0.0,80,0.00,,,0.00,meteohub,2013-06-12 08:13:00,
2013-06-12 03:18:00,73.8,67.3,29.91,SE,135,0.0,0.0,80,0.00,,,0.00,meteohub,2013-06-12 08:18:00,
2013-06-12 03:23:00,73.9,67.8,29.91,SE,135,0.0,0.0,81,0.00,,,0.00,meteohub,2013-06-12 08:23:00,
2013-06-12 03:28:00,73.8,67.6,29.91,SE,135,0.0,0.0,81,0.00,,,0.00,meteohub,2013-06-12 08:28:00,
2013-06-12 03:33:00,73.6,67.5,29.91,WSW,248,0.0,0.0,81,0.00,,,0.00,meteohub,2013-06-12 08:33:00,
2013-06-12 03:38:00,73.4,67.3,29.90,SW,225,0.0,0.0,81,0.00,,,0.00,meteohub,2013-06-12 08:38:00,
2013-06-12 03:43:00,73.6,67.5,29.90,SE,135,0.0,0.0,81,0.00,,,0.00,meteohub,2013-06-12 08:43:00,
2013-06-12 03:48:00,73.4,67.3,29.90,ESE,113,0.0,0.0,81,0.00,,,0.00,meteohub,2013-06-12 08:48:00,
2013-06-12 03:53:00,73.2,67.1,29.90,SE,135,0.0,0.0,81,0.00,,,0.00,meteohub,2013-06-12 08:53:00,
2013-06-12 03:58:00,73.2,67.5,29.90,ESE,113,0.0,0.0,82,0.00,,,0.00,meteohub,2013-06-12 08:58:00,
2013-06-12 04:03:00,73.0,67.3,29.90,ESE,113,0.0,0.0,82,0.00,,,0.00,meteohub,2013-06-12 09:03:00,
2013-06-12 04:08:00,73.2,67.5,29.90,SE,135,0.0,0.0,82,0.00,,,0.00,meteohub,2013-06-12 09:08:00,
2013-06-12 04:13:00,73.0,67.3,29.90,ESE,113,0.0,0.0,82,0.00,,,0.00,meteohub,2013-06-12 09:13:00,
2013-06-12 04:19:00,72.9,67.1,29.90,ESE,113,0.0,0.0,82,0.00,,,0.00,meteohub,2013-06-12 09:19:00,
2013-06-12 04:24:00,72.9,67.1,29.90,SE,135,0.0,0.0,82,0.00,,,0.00,meteohub,2013-06-12 09:24:00,
2013-06-12 04:28:00,72.9,67.5,29.90,ESE,113,0.0,0.0,83,0.00,,,0.00,meteohub,2013-06-12 09:28:00,
2013-06-12 04:34:00,72.9,67.5,29.90,ESE,113,0.0,0.0,83,0.00,,,0.00,meteohub,2013-06-12 09:34:00,
2013-06-12 04:39:00,72.7,67.3,29.91,ESE,113,0.0,0.0,83,0.00,,,0.00,meteohub,2013-06-12 09:39:00,
2013-06-12 04:44:00,72.5,67.1,29.91,ESE,113,0.0,0.0,83,0.00,,,0.00,meteohub,2013-06-12 09:44:00,
2013-06-12 04:49:00,72.5,67.5,29.91,ESE,113,0.0,0.0,84,0.00,,,0.00,meteohub,2013-06-12 09:49:00,
2013-06-12 04:54:00,72.3,67.3,29.91,SSE,158,0.0,0.0,84,0.00,,,0.00,meteohub,2013-06-12 09:54:00,
2013-06-12 04:59:00,72.3,67.3,29.90,ENE,68,0.0,0.0,84,0.00,,,0.00,meteohub,2013-06-12 09:59:00,
2013-06-12 05:04:00,72.3,67.3,29.90,SE,135,0.0,0.0,84,0.00,,,0.00,meteohub,2013-06-12 10:04:00,
2013-06-12 05:09:00,72.3,67.3,29.90,SE,135,0.0,0.0,84,0.00,,,0.00,meteohub,2013-06-12 10:09:00,
2013-06-12 05:14:00,72.1,67.1,29.90,SW,225,0.0,0.0,84,0.00,,,0.00,meteohub,2013-06-12 10:14:00,
2013-06-12 05:19:00,72.1,67.1,29.91,South,180,0.0,0.0,84,0.00,,,0.00,meteohub,2013-06-12 10:19:00,
2013-06-12 05:24:00,72.0,66.9,29.91,ESE,113,0.0,0.0,84,0.00,,,0.00,meteohub,2013-06-12 10:24:00,
2013-06-12 05:29:00,72.1,67.5,29.91,ENE,68,0.0,0.0,85,0.00,,,0.00,meteohub,2013-06-12 10:29:00,
2013-06-12 05:34:00,72.1,67.5,29.91,South,180,0.0,0.0,85,0.00,,,0.00,meteohub,2013-06-12 10:34:00,
2013-06-12 05:39:00,71.8,67.1,29.91,SSE,158,0.0,0.0,85,0.00,,,0.00,meteohub,2013-06-12 10:39:00,
2013-06-12 05:44:00,71.8,67.1,29.91,ESE,113,0.0,0.0,85,0.00,,,0.00,meteohub,2013-06-12 10:44:00,
2013-06-12 05:49:00,72.0,67.3,29.91,NE,45,0.0,0.0,85,0.00,,,0.00,meteohub,2013-06-12 10:49:00,
2013-06-12 05:54:00,71.8,67.3,29.91,South,180,0.0,0.0,86,0.00,,,0.00,meteohub,2013-06-12 10:54:00,
2013-06-12 05:59:00,72.0,67.5,29.91,SE,135,0.0,0.0,86,0.00,,,0.00,meteohub,2013-06-12 10:59:00,
2013-06-12 06:04:00,71.8,67.3,29.91,ENE,68,0.0,0.0,86,0.00,,,0.00,meteohub,2013-06-12 11:04:00,
2013-06-12 06:09:00,71.8,67.3,29.91,SSE,158,0.0,0.0,86,0.00,,,0.00,meteohub,2013-06-12 11:09:00,
2013-06-12 06:14:00,71.8,67.3,29.91,WSW,248,0.0,2.0,86,0.00,,,0.00,meteohub,2013-06-12 11:14:00,
2013-06-12 06:19:00,72.0,67.5,29.92,SE,135,2.0,2.0,86,0.00,,,0.00,meteohub,2013-06-12 11:19:00,
2013-06-12 06:24:00,72.0,67.5,29.92,SSE,158,0.0,4.0,86,0.00,,,0.00,meteohub,2013-06-12 11:24:00,
2013-06-12 06:29:00,72.1,68.0,29.92,SSW,203,0.0,4.0,87,0.00,,,0.00,meteohub,2013-06-12 11:29:00,
2013-06-12 06:34:00,72.3,68.2,29.92,ENE,68,0.0,4.0,87,0.00,,,0.00,meteohub,2013-06-12 11:34:00,
2013-06-12 06:39:00,72.3,68.2,29.93,SSW,203,1.0,4.0,87,0.00,,,0.00,meteohub,2013-06-12 11:39:00,
2013-06-12 06:44:00,72.5,68.4,29.93,SSW,203,4.0,4.0,87,0.00,,,0.00,meteohub,2013-06-12 11:44:00,
2013-06-12 06:49:00,72.9,68.7,29.93,South,180,3.0,4.0,87,0.00,,,0.00,meteohub,2013-06-12 11:49:00,
2013-06-12 06:54:00,72.9,68.7,29.93,South,180,5.0,5.0,87,0.00,,,0.00,meteohub,2013-06-12 11:54:00,
2013-06-12 06:59:00,73.2,69.1,29.93,SW,225,6.0,6.0,87,0.00,,,0.00,meteohub,2013-06-12 11:59:00,
2013-06-12 07:04:00,73.0,68.9,29.93,WSW,248,4.0,7.0,87,0.00,,,0.00,meteohub,2013-06-12 12:04:00,
2013-06-12 07:09:00,73.6,69.1,29.93,ESE,113,7.0,7.0,86,0.00,,,0.00,meteohub,2013-06-12 12:09:00,
2013-06-12 07:14:00,73.4,68.9,29.92,SSW,203,3.0,7.0,86,0.00,,,0.00,meteohub,2013-06-12 12:14:00,
2013-06-12 07:19:00,73.9,69.4,29.92,SW,225,5.0,7.0,86,0.00,,,0.00,meteohub,2013-06-12 12:19:00,
2013-06-12 07:24:00,73.8,69.3,29.92,South,180,5.0,7.0,86,0.00,,,0.00,meteohub,2013-06-12 12:24:00,
2013-06-12 07:29:00,74.1,69.6,29.92,South,180,6.0,7.0,86,0.00,,,0.00,meteohub,2013-06-12 12:29:00,
2013-06-12 07:34:00,74.5,70.0,29.92,SSW,203,7.0,9.0,86,0.00,,,0.00,meteohub,2013-06-12 12:34:00,
2013-06-12 07:39:00,74.7,70.2,29.93,SSW,203,5.0,9.0,86,0.00,,,0.00,meteohub,2013-06-12 12:39:00,
2013-06-12 07:44:00,75.0,70.2,29.93,WSW,248,9.0,9.0,85,0.00,,,0.00,meteohub,2013-06-12 12:44:00,
2013-06-12 07:49:00,75.2,70.3,29.93,SW,225,4.0,7.0,85,0.00,,,0.00,meteohub,2013-06-12 12:49:00,
2013-06-12 07:54:00,75.4,70.5,29.93,WSW,248,2.0,9.0,85,0.00,,,0.00,meteohub,2013-06-12 12:54:00,
2013-06-12 08:00:00,75.9,71.1,29.92,WSW,248,6.0,9.0,85,0.00,,,0.00,meteohub,2013-06-12 13:00:00,
2013-06-12 08:05:00,76.5,71.2,29.92,South,180,9.0,9.0,84,0.00,,,0.00,meteohub,2013-06-12 13:05:00,
2013-06-12 08:10:00,76.5,71.2,29.92,South,180,10.0,10.0,84,0.00,,,0.00,meteohub,2013-06-12 13:10:00,
2013-06-12 08:15:00,76.6,71.4,29.92,SW,225,9.0,9.0,84,0.00,,,0.00,meteohub,2013-06-12 13:15:00,
2013-06-12 08:20:00,77.5,72.0,29.92,SSW,203,7.0,10.0,83,0.00,,,0.00,meteohub,2013-06-12 13:20:00,
2013-06-12 08:25:00,77.7,72.1,29.92,SSE,158,5.0,10.0,83,0.00,,,0.00,meteohub,2013-06-12 13:25:00,
2013-06-12 08:30:00,78.1,72.1,29.92,WSW,248,7.0,9.0,82,0.00,,,0.00,meteohub,2013-06-12 13:30:00,
2013-06-12 08:35:00,78.3,72.0,29.93,ENE,68,10.0,10.0,81,0.00,,,0.00,meteohub,2013-06-12 13:35:00,
2013-06-12 08:40:00,78.6,72.3,29.93,SSW,203,8.0,10.0,81,0.00,,,0.00,meteohub,2013-06-12 13:40:00,
2013-06-12 08:45:00,79.0,72.7,29.93,WSW,248,5.0,10.0,81,0.00,,,0.00,meteohub,2013-06-12 13:45:00,
2013-06-12 08:50:00,79.3,72.7,29.93,WSW,248,4.0,10.0,80,0.00,,,0.00,meteohub,2013-06-12 13:50:00,
2013-06-12 08:55:00,79.7,72.7,29.92,SW,225,7.0,14.0,79,0.00,,,0.00,meteohub,2013-06-12 13:55:00,
2013-06-12 09:00:00,80.1,73.0,29.92,West,270,8.0,14.0,79,0.00,,,0.00,meteohub,2013-06-12 14:00:00,
2013-06-12 09:05:00,80.2,72.7,29.92,WSW,248,12.0,14.0,78,0.00,,,0.00,meteohub,2013-06-12 14:05:00,
2013-06-12 09:10:00,80.4,72.5,29.92,South,180,9.0,12.0,77,0.00,,,0.00,meteohub,2013-06-12 14:10:00,
2013-06-12 09:15:00,80.8,72.5,29.91,WSW,248,11.0,12.0,76,0.00,,,0.00,meteohub,2013-06-12 14:15:00,
2013-06-12 09:20:00,81.1,72.9,29.91,WSW,248,15.0,15.0,76,0.00,,,0.00,meteohub,2013-06-12 14:20:00,
2013-06-12 09:25:00,81.1,72.5,29.91,South,180,11.0,15.0,75,0.00,,,0.00,meteohub,2013-06-12 14:25:00,
2013-06-12 09:30:00,81.3,72.7,29.91,WSW,248,9.0,15.0,75,0.00,,,0.00,meteohub,2013-06-12 14:30:00,
2013-06-12 09:35:00,81.5,72.9,29.91,ENE,68,7.0,15.0,75,0.00,,,0.00,meteohub,2013-06-12 14:35:00,
2013-06-12 09:40:00,81.7,72.5,29.91,SW,225,10.0,11.0,74,0.00,,,0.00,meteohub,2013-06-12 14:40:00,
2013-06-12 09:45:00,81.9,72.7,29.91,South,180,6.0,10.0,74,0.00,,,0.00,meteohub,2013-06-12 14:45:00,
2013-06-12 09:50:00,82.0,72.5,29.91,South,180,13.0,13.0,73,0.00,,,0.00,meteohub,2013-06-12 14:50:00,
2013-06-12 09:55:00,82.0,72.5,29.91,SW,225,11.0,13.0,73,0.00,,,0.00,meteohub,2013-06-12 14:55:00,
2013-06-12 10:00:00,82.4,72.9,29.91,WSW,248,5.0,14.0,73,0.00,,,0.00,meteohub,2013-06-12 15:00:00,
2013-06-12 10:05:00,82.6,72.7,29.91,SSW,203,12.0,14.0,72,0.00,,,0.00,meteohub,2013-06-12 15:05:00,
2013-06-12 10:10:00,82.8,72.9,29.90,South,180,9.0,12.0,72,0.00,,,0.00,meteohub,2013-06-12 15:10:00,
2013-06-12 10:15:00,82.8,72.9,29.90,South,180,6.0,12.0,72,0.00,,,0.00,meteohub,2013-06-12 15:15:00,
2013-06-12 10:20:00,82.9,72.5,29.90,South,180,10.0,12.0,71,0.00,,,0.00,meteohub,2013-06-12 15:20:00,
2013-06-12 10:25:00,83.1,72.7,29.90,SSW,203,9.0,12.0,71,0.00,,,0.00,meteohub,2013-06-12 15:25:00,
2013-06-12 10:30:00,83.3,72.9,29.90,West,270,9.0,12.0,71,0.00,,,0.00,meteohub,2013-06-12 15:30:00,
2013-06-12 10:35:00,83.5,72.7,29.89,WSW,248,17.0,17.0,70,0.00,,,0.00,meteohub,2013-06-12 15:35:00,
2013-06-12 10:40:00,83.7,73.2,29.89,SSW,203,8.0,17.0,71,0.00,,,0.00,meteohub,2013-06-12 15:40:00,
2013-06-12 10:45:00,83.8,73.4,29.89,SSW,203,9.0,17.0,71,0.00,,,0.00,meteohub,2013-06-12 15:45:00,
2013-06-12 10:50:00,84.0,73.2,29.89,SW,225,12.0,17.0,70,0.00,,,0.00,meteohub,2013-06-12 15:50:00,
2013-06-12 10:56:00,84.4,73.0,29.88,WSW,248,11.0,15.0,69,0.00,,,0.00,meteohub,2013-06-12 15:56:00,
2013-06-12 11:01:00,84.2,72.9,29.88,ENE,68,14.0,14.0,69,0.00,,,0.00,meteohub,2013-06-12 16:01:00,
2013-06-12 11:06:00,84.4,72.7,29.88,WSW,248,8.0,14.0,68,0.00,,,0.00,meteohub,2013-06-12 16:06:00,
2013-06-12 11:11:00,84.4,72.7,29.88,West,270,12.0,14.0,68,0.00,,,0.00,meteohub,2013-06-12 16:11:00,
2013-06-12 11:16:00,84.4,72.7,29.88,South,180,17.0,17.0,68,0.00,,,0.00,meteohub,2013-06-12 16:16:00,
2013-06-12 11:21:00,84.6,72.9,29.88,WSW,248,12.0,17.0,68,0.00,,,0.00,meteohub,2013-06-12 16:21:00,
2013-06-12 11:26:00,84.7,72.5,29.87,South,180,6.0,17.0,67,0.00,,,0.00,meteohub,2013-06-12 16:26:00,
2013-06-12 11:31:00,84.9,73.6,29.87,WSW,248,6.0,17.0,69,0.00,,,0.00,meteohub,2013-06-12 16:31:00,
2013-06-12 11:36:00,85.1,73.4,29.87,WSW,248,15.0,15.0,68,0.00,,,0.00,meteohub,2013-06-12 16:36:00,
2013-06-12 11:41:00,85.1,73.4,29.87,SSW,203,13.0,15.0,68,0.00,,,0.00,meteohub,2013-06-12 16:41:00,
2013-06-12 11:46:00,85.3,73.0,29.87,South,180,4.0,15.0,67,0.00,,,0.00,meteohub,2013-06-12 16:46:00,
2013-06-12 11:51:00,85.5,73.8,29.87,SE,135,11.0,15.0,68,0.00,,,0.00,meteohub,2013-06-12 16:51:00,
2013-06-12 11:56:00,85.8,72.7,29.87,SSW,203,7.0,13.0,65,0.00,,,0.00,meteohub,2013-06-12 16:56:00,
2013-06-12 12:01:00,85.8,73.6,29.87,SW,225,13.0,13.0,67,0.00,,,0.00,meteohub,2013-06-12 17:01:00,
2013-06-12 12:06:00,85.8,73.2,29.87,ESE,113,5.0,13.0,66,0.00,,,0.00,meteohub,2013-06-12 17:06:00,
2013-06-12 12:11:00,85.8,73.2,29.87,South,180,10.0,13.0,66,0.00,,,0.00,meteohub,2013-06-12 17:11:00,
2013-06-12 12:16:00,86.0,72.9,29.86,South,180,9.0,13.0,65,0.00,,,0.00,meteohub,2013-06-12 17:16:00,
2013-06-12 12:21:00,86.2,72.5,29.86,SW,225,9.0,13.0,64,0.00,,,0.00,meteohub,2013-06-12 17:21:00,
2013-06-12 12:26:00,86.2,72.5,29.86,SW,225,9.0,13.0,64,0.00,,,0.00,meteohub,2013-06-12 17:26:00,
2013-06-12 12:31:00,86.2,72.5,29.86,SSW,203,12.0,12.0,64,0.00,,,0.00,meteohub,2013-06-12 17:31:00,
2013-06-12 12:36:00,86.4,72.3,29.85,SW,225,16.0,16.0,63,0.00,,,0.00,meteohub,2013-06-12 17:36:00,
2013-06-12 12:41:00,86.5,72.5,29.85,SSW,203,10.0,16.0,63,0.00,,,0.00,meteohub,2013-06-12 17:41:00,
2013-06-12 12:46:00,86.5,72.5,29.85,WSW,248,12.0,16.0,63,0.00,,,0.00,meteohub,2013-06-12 17:46:00,
2013-06-12 12:51:00,86.9,72.9,29.85,South,180,14.0,16.0,63,0.00,,,0.00,meteohub,2013-06-12 17:51:00,
2013-06-12 12:56:00,87.1,72.9,29.83,WSW,248,13.0,20.0,63,0.00,,,0.00,meteohub,2013-06-12 17:56:00,
2013-06-12 13:01:00,87.1,72.5,29.83,South,180,12.0,20.0,62,0.00,,,0.00,meteohub,2013-06-12 18:01:00,
2013-06-12 13:06:00,87.3,73.0,29.83,West,270,7.0,14.0,63,0.00,,,0.00,meteohub,2013-06-12 18:06:00,
2013-06-12 13:11:00,87.3,72.7,29.83,South,180,13.0,13.0,62,0.00,,,0.00,meteohub,2013-06-12 18:11:00,
2013-06-12 13:16:00,87.3,72.7,29.84,South,180,16.0,16.0,62,0.00,,,0.00,meteohub,2013-06-12 18:16:00,
2013-06-12 13:21:00,87.4,73.2,29.84,South,180,9.0,17.0,63,0.00,,,0.00,meteohub,2013-06-12 18:21:00,
2013-06-12 13:26:00,87.4,72.9,29.84,ESE,113,9.0,17.0,62,0.00,,,0.00,meteohub,2013-06-12 18:26:00,
2013-06-12 13:31:00,87.4,71.8,29.84,SSW,203,18.0,18.0,60,0.00,,,0.00,meteohub,2013-06-12 18:31:00,
2013-06-12 13:36:00,87.6,72.0,29.84,SSW,203,10.0,15.0,60,0.00,,,0.00,meteohub,2013-06-12 18:36:00,
2013-06-12 13:41:00,88.0,72.3,29.84,SSE,158,10.0,18.0,60,0.00,,,0.00,meteohub,2013-06-12 18:41:00,
2013-06-12 13:46:00,88.0,72.3,29.84,North,0,9.0,18.0,60,0.00,,,0.00,meteohub,2013-06-12 18:46:00,
2013-06-12 13:51:00,88.2,73.4,29.84,SW,225,7.0,17.0,62,0.00,,,0.00,meteohub,2013-06-12 18:51:00,
2013-06-12 13:56:00,88.3,73.2,29.85,West,270,13.0,21.0,61,0.00,,,0.00,meteohub,2013-06-12 18:56:00,
2013-06-12 14:01:00,88.7,73.0,29.85,NNE,23,11.0,21.0,60,0.00,,,0.00,meteohub,2013-06-12 19:01:00,
2013-06-12 14:06:00,88.7,73.0,29.85,SW,225,10.0,21.0,60,0.00,,,0.00,meteohub,2013-06-12 19:06:00,
2013-06-12 14:11:00,88.7,73.6,29.85,South,180,8.0,13.0,61,0.00,,,0.00,meteohub,2013-06-12 19:11:00,
2013-06-12 14:16:00,89.1,73.9,29.84,West,270,11.0,11.0,61,0.00,,,0.00,meteohub,2013-06-12 19:16:00,
2013-06-12 14:21:00,89.1,73.4,29.84,SW,225,11.0,12.0,60,0.00,,,0.00,meteohub,2013-06-12 19:21:00,
2013-06-12 14:26:00,89.4,73.8,29.84,SE,135,6.0,12.0,60,0.00,,,0.00,meteohub,2013-06-12 19:26:00,
2013-06-12 14:31:00,89.4,74.1,29.84,SSW,203,10.0,12.0,61,0.00,,,0.00,meteohub,2013-06-12 19:31:00,
2013-06-12 14:36:00,89.6,73.9,29.83,South,180,9.0,11.0,60,0.00,,,0.00,meteohub,2013-06-12 19:36:00,
2013-06-12 14:41:00,89.6,73.4,29.83,WSW,248,9.0,11.0,59,0.00,,,0.00,meteohub,2013-06-12 19:41:00,
2013-06-12 14:46:00,89.6,72.3,29.83,South,180,11.0,15.0,57,0.00,,,0.00,meteohub,2013-06-12 19:46:00,
2013-06-12 14:51:00,89.6,71.2,29.83,SSW,203,15.0,15.0,55,0.00,,,0.00,meteohub,2013-06-12 19:51:00,
2013-06-12 14:56:00,89.8,71.4,29.82,SW,225,11.0,15.0,55,0.00,,,0.00,meteohub,2013-06-12 19:56:00,
2013-06-12 15:01:00,89.8,72.5,29.82,South,180,7.0,15.0,57,0.00,,,0.00,meteohub,2013-06-12 20:01:00,
2013-06-12 15:07:00,90.0,72.7,29.82,South,180,5.0,15.0,57,0.00,,,0.00,meteohub,2013-06-12 20:07:00,
2013-06-12 15:12:00,90.1,72.9,29.82,South,180,10.0,17.0,57,0.00,,,0.00,meteohub,2013-06-12 20:12:00,
2013-06-12 15:17:00,90.1,71.8,29.82,SSW,203,17.0,17.0,55,0.00,,,0.00,meteohub,2013-06-12 20:17:00,
2013-06-12 15:22:00,90.1,71.2,29.82,SSW,203,19.0,19.0,54,0.00,,,0.00,meteohub,2013-06-12 20:22:00,
2013-06-12 15:27:00,90.3,71.4,29.82,WSW,248,12.0,19.0,54,0.00,,,0.00,meteohub,2013-06-12 20:27:00,
2013-06-12 15:32:00,90.3,71.4,29.82,South,180,9.0,23.0,54,0.00,,,0.00,meteohub,2013-06-12 20:32:00,
2013-06-12 15:37:00,90.5,72.1,29.82,South,180,10.0,23.0,55,0.00,,,0.00,meteohub,2013-06-12 20:37:00,
2013-06-12 15:42:00,90.5,72.7,29.82,WSW,248,5.0,23.0,56,0.00,,,0.00,meteohub,2013-06-12 20:42:00,
2013-06-12 15:47:00,90.7,71.8,29.82,SSW,203,17.0,17.0,54,0.00,,,0.00,meteohub,2013-06-12 20:47:00,
2013-06-12 15:51:00,90.7,72.9,29.82,ESE,113,7.0,17.0,56,0.00,,,0.00,meteohub,2013-06-12 20:51:00,
2013-06-12 15:57:00,90.9,73.0,29.82,SW,225,11.0,17.0,56,0.00,,,0.00,meteohub,2013-06-12 20:57:00,
2013-06-12 16:02:00,90.7,72.9,29.82,WSW,248,12.0,17.0,56,0.00,,,0.00,meteohub,2013-06-12 21:02:00,
2013-06-12 16:07:00,90.7,71.8,29.82,South,180,10.0,16.0,54,0.00,,,0.00,meteohub,2013-06-12 21:07:00,
2013-06-12 16:12:00,90.5,72.1,29.82,SW,225,17.0,17.0,55,0.00,,,0.00,meteohub,2013-06-12 21:12:00,
2013-06-12 16:17:00,90.3,72.0,29.81,SW,225,13.0,17.0,55,0.00,,,0.00,meteohub,2013-06-12 21:17:00,
2013-06-12 16:22:00,90.3,71.4,29.81,SSW,203,14.0,17.0,54,0.00,,,0.00,meteohub,2013-06-12 21:22:00,
2013-06-12 16:27:00,90.5,72.7,29.81,South,180,9.0,17.0,56,0.00,,,0.00,meteohub,2013-06-12 21:27:00,
2013-06-12 16:32:00,90.7,72.3,29.81,West,270,12.0,14.0,55,0.00,,,0.00,meteohub,2013-06-12 21:32:00,
2013-06-12 16:37:00,90.7,72.3,29.82,South,180,11.0,14.0,55,0.00,,,0.00,meteohub,2013-06-12 21:37:00,
2013-06-12 16:42:00,90.9,73.0,29.82,West,270,5.0,13.0,56,0.00,,,0.00,meteohub,2013-06-12 21:42:00,
2013-06-12 16:47:00,90.9,72.5,29.82,NW,315,8.0,12.0,55,0.00,,,0.00,meteohub,2013-06-12 21:47:00,
2013-06-12 16:52:00,90.7,72.3,29.82,SW,225,6.0,13.0,55,0.00,,,0.00,meteohub,2013-06-12 21:52:00,
2013-06-12 16:57:00,90.7,72.9,29.82,WNW,293,9.0,13.0,56,0.00,,,0.00,meteohub,2013-06-12 21:57:00,
2013-06-12 17:02:00,90.9,72.5,29.82,SW,225,9.0,13.0,55,0.00,,,0.00,meteohub,2013-06-12 22:02:00,
2013-06-12 17:07:00,90.9,73.0,29.82,NW,315,7.0,11.0,56,0.00,,,0.00,meteohub,2013-06-12 22:07:00,
2013-06-12 17:12:00,90.7,72.3,29.82,South,180,13.0,15.0,55,0.00,,,0.00,meteohub,2013-06-12 22:12:00,
2013-06-12 17:17:00,90.5,71.6,29.81,South,180,13.0,21.0,54,0.00,,,0.00,meteohub,2013-06-12 22:17:00,
2013-06-12 17:22:00,90.3,71.4,29.81,WNW,293,8.0,21.0,54,0.00,,,0.00,meteohub,2013-06-12 22:22:00,
2013-06-12 17:27:00,90.3,72.0,29.81,South,180,15.0,21.0,55,0.00,,,0.00,meteohub,2013-06-12 22:27:00,
2013-06-12 17:32:00,90.3,72.0,29.81,SW,225,6.0,15.0,55,0.00,,,0.00,meteohub,2013-06-12 22:32:00,
2013-06-12 17:37:00,90.5,72.1,29.81,SSW,203,12.0,15.0,55,0.00,,,0.00,meteohub,2013-06-12 22:37:00,
2013-06-12 17:42:00,90.1,72.3,29.81,ENE,68,6.0,15.0,56,0.00,,,0.00,meteohub,2013-06-12 22:42:00,
2013-06-12 17:47:00,90.3,72.5,29.81,North,0,6.0,12.0,56,0.00,,,0.00,meteohub,2013-06-12 22:47:00,
2013-06-12 17:52:00,90.1,72.3,29.81,WSW,248,8.0,12.0,56,0.00,,,0.00,meteohub,2013-06-12 22:52:00,
2013-06-12 17:57:00,90.1,72.9,29.81,South,180,8.0,11.0,57,0.00,,,0.00,meteohub,2013-06-12 22:57:00,
2013-06-12 18:02:00,90.1,72.9,29.81,WNW,293,7.0,12.0,57,0.00,,,0.00,meteohub,2013-06-12 23:02:00,
2013-06-12 18:07:00,90.1,73.4,29.81,SSW,203,5.0,12.0,58,0.00,,,0.00,meteohub,2013-06-12 23:07:00,
2013-06-12 18:12:00,90.1,73.4,29.81,SSE,158,3.0,12.0,58,0.00,,,0.00,meteohub,2013-06-12 23:12:00,
2013-06-12 18:17:00,90.1,73.4,29.81,South,180,9.0,9.0,58,0.00,,,0.00,meteohub,2013-06-12 23:17:00,
2013-06-12 18:22:00,90.1,73.4,29.81,South,180,6.0,9.0,58,0.00,,,0.00,meteohub,2013-06-12 23:22:00,
2013-06-12 18:27:00,90.0,72.7,29.81,NE,45,12.0,12.0,57,0.00,,,0.00,meteohub,2013-06-12 23:27:00,
2013-06-12 18:32:00,89.8,72.5,29.81,WSW,248,5.0,13.0,57,0.00,,,0.00,meteohub,2013-06-12 23:32:00,
2013-06-12 18:37:00,89.6,71.2,29.82,SSW,203,10.0,13.0,55,0.00,,,0.00,meteohub,2013-06-12 23:37:00,
2013-06-12 18:42:00,89.4,71.1,29.82,SW,225,9.0,12.0,55,0.00,,,0.00,meteohub,2013-06-12 23:42:00,
2013-06-12 18:47:00,89.1,70.2,29.82,SW,225,13.0,13.0,54,0.00,,,0.00,meteohub,2013-06-12 23:47:00,
2013-06-12 18:52:00,88.9,71.1,29.82,SW,225,12.0,13.0,56,0.00,,,0.00,meteohub,2013-06-12 23:52:00,
2013-06-12 18:57:00,88.7,71.1,29.82,SW,225,10.0,13.0,56,0.00,,,0.00,meteohub,2013-06-12 23:57:00,
2013-06-12 19:02:00,88.7,71.1,29.82,SW,225,4.0,13.0,56,0.00,,,0.00,meteohub,2013-06-13 00:02:00,
2013-06-12 19:07:00,88.5,71.4,29.82,South,180,6.0,12.0,57,0.00,,,0.00,meteohub,2013-06-13 00:07:00,
2013-06-12 19:12:00,88.7,71.1,29.82,West,270,8.0,11.0,56,0.00,,,0.00,meteohub,2013-06-13 00:12:00,
2013-06-12 19:17:00,88.3,70.7,29.82,WNW,293,5.0,13.0,56,0.00,,,0.00,meteohub,2013-06-13 00:17:00,
2013-06-12 19:22:00,88.3,70.7,29.82,WSW,248,8.0,13.0,56,0.00,,,0.00,meteohub,2013-06-13 00:22:00,
2013-06-12 19:27:00,88.2,71.1,29.82,SW,225,6.0,13.0,57,0.00,,,0.00,meteohub,2013-06-13 00:27:00,
2013-06-12 19:32:00,88.0,71.4,29.82,SSW,203,3.0,9.0,58,0.00,,,0.00,meteohub,2013-06-13 00:32:00,
2013-06-12 19:37:00,88.0,71.8,29.83,SW,225,9.0,9.0,59,0.00,,,0.00,meteohub,2013-06-13 00:37:00,
2013-06-12 19:42:00,87.4,70.9,29.83,SSW,203,6.0,9.0,58,0.00,,,0.00,meteohub,2013-06-13 00:42:00,
2013-06-12 19:47:00,87.3,71.2,29.83,SW,225,5.0,9.0,59,0.00,,,0.00,meteohub,2013-06-13 00:47:00,
2013-06-12 19:52:00,86.9,70.9,29.83,SSW,203,3.0,9.0,59,0.00,,,0.00,meteohub,2013-06-13 00:52:00,
2013-06-12 19:57:00,86.5,71.1,29.83,WSW,248,3.0,6.0,60,0.00,,,0.00,meteohub,2013-06-13 00:57:00,
2013-06-12 20:02:00,86.4,70.9,29.83,SSW,203,2.0,5.0,60,0.00,,,0.00,meteohub,2013-06-13 01:02:00,
2013-06-12 20:07:00,86.0,70.5,29.83,SSW,203,3.0,5.0,60,0.00,,,0.00,meteohub,2013-06-13 01:07:00,
2013-06-12 20:12:00,85.8,70.9,29.83,SW,225,2.0,5.0,61,0.00,,,0.00,meteohub,2013-06-13 01:12:00,
2013-06-12 20:17:00,85.3,70.3,29.84,South,180,5.0,5.0,61,0.00,,,0.00,meteohub,2013-06-13 01:17:00,
2013-06-12 20:22:00,85.1,70.5,29.84,SSW,203,3.0,5.0,62,0.00,,,0.00,meteohub,2013-06-13 01:22:00,
2013-06-12 20:27:00,84.7,70.3,29.84,SSE,158,3.0,5.0,62,0.00,,,0.00,meteohub,2013-06-13 01:27:00,
2013-06-12 20:32:00,84.4,70.3,29.84,South,180,4.0,5.0,63,0.00,,,0.00,meteohub,2013-06-13 01:32:00,
2013-06-12 20:37:00,84.0,70.0,29.83,South,180,3.0,4.0,63,0.00,,,0.00,meteohub,2013-06-13 01:37:00,
2013-06-12 20:41:00,83.8,70.3,29.83,WSW,248,4.0,4.0,64,0.00,,,0.00,meteohub,2013-06-13 01:41:00,
2013-06-12 20:47:00,83.5,70.0,29.83,SW,225,3.0,4.0,64,0.00,,,0.00,meteohub,2013-06-13 01:47:00,
2013-06-12 20:52:00,83.1,70.2,29.83,SSE,158,4.0,4.0,65,0.00,,,0.00,meteohub,2013-06-13 01:52:00,
2013-06-12 20:57:00,82.9,70.0,29.83,South,180,7.0,7.0,65,0.00,,,0.00,meteohub,2013-06-13 01:57:00,
2013-06-12 21:02:00,82.8,70.2,29.83,WSW,248,2.0,7.0,66,0.00,,,0.00,meteohub,2013-06-13 02:02:00,
2013-06-12 21:07:00,82.8,70.2,29.83,SSW,203,3.0,7.0,66,0.00,,,0.00,meteohub,2013-06-13 02:07:00,
2013-06-12 21:12:00,82.4,70.0,29.84,SW,225,4.0,7.0,66,0.00,,,0.00,meteohub,2013-06-13 02:12:00,
2013-06-12 21:17:00,82.4,70.0,29.85,South,180,2.0,4.0,66,0.00,,,0.00,meteohub,2013-06-13 02:17:00,
2013-06-12 21:22:00,82.2,70.2,29.85,ENE,68,3.0,4.0,67,0.00,,,0.00,meteohub,2013-06-13 02:22:00,
2013-06-12 21:27:00,82.0,70.0,29.85,SSW,203,2.0,4.0,67,0.00,,,0.00,meteohub,2013-06-13 02:27:00,
2013-06-12 21:32:00,81.9,70.3,29.85,SW,225,2.0,4.0,68,0.00,,,0.00,meteohub,2013-06-13 02:32:00,
2013-06-12 21:37:00,81.7,70.2,29.86,SSW,203,3.0,3.0,68,0.00,,,0.00,meteohub,2013-06-13 02:37:00,
2013-06-12 21:42:00,81.5,70.0,29.86,SW,225,2.0,3.0,68,0.00,,,0.00,meteohub,2013-06-13 02:42:00,
2013-06-12 21:47:00,81.5,70.3,29.86,WSW,248,4.0,4.0,69,0.00,,,0.00,meteohub,2013-06-13 02:47:00,
2013-06-12 21:52:00,81.1,70.0,29.86,South,180,1.0,4.0,69,0.00,,,0.00,meteohub,2013-06-13 02:52:00,
2013-06-12 21:57:00,81.1,70.0,29.86,South,180,2.0,4.0,69,0.00,,,0.00,meteohub,2013-06-13 02:57:00,
2013-06-12 22:02:00,80.8,69.6,29.86,South,180,3.0,4.0,69,0.00,,,0.00,meteohub,2013-06-13 03:02:00,
2013-06-12 22:07:00,80.8,69.6,29.86,West,270,0.0,4.0,69,0.00,,,0.00,meteohub,2013-06-13 03:07:00,
2013-06-12 22:12:00,80.4,69.8,29.86,WSW,248,2.0,3.0,70,0.00,,,0.00,meteohub,2013-06-13 03:12:00,
2013-06-12 22:17:00,80.4,69.8,29.86,SW,225,3.0,3.0,70,0.00,,,0.00,meteohub,2013-06-13 03:17:00,
2013-06-12 22:22:00,80.4,70.2,29.86,South,180,4.0,4.0,71,0.00,,,0.00,meteohub,2013-06-13 03:22:00,
2013-06-12 22:27:00,80.1,69.8,29.86,SSW,203,2.0,4.0,71,0.00,,,0.00,meteohub,2013-06-13 03:27:00,
2013-06-12 22:32:00,79.9,69.6,29.86,South,180,3.0,4.0,71,0.00,,,0.00,meteohub,2013-06-13 03:32:00,
2013-06-12 22:37:00,79.9,70.0,29.86,SSW,203,4.0,4.0,72,0.00,,,0.00,meteohub,2013-06-13 03:37:00,
2013-06-12 22:42:00,79.7,69.8,29.86,SSW,203,8.0,8.0,72,0.00,,,0.00,meteohub,2013-06-13 03:42:00,
2013-06-12 22:47:00,79.7,69.8,29.86,West,270,3.0,8.0,72,0.00,,,0.00,meteohub,2013-06-13 03:47:00,
2013-06-12 22:52:00,79.5,69.6,29.86,WSW,248,3.0,8.0,72,0.00,,,0.00,meteohub,2013-06-13 03:52:00,
2013-06-12 22:57:00,79.5,69.6,29.87,SSW,203,3.0,8.0,72,0.00,,,0.00,meteohub,2013-06-13 03:57:00,
2013-06-12 23:01:00,79.5,70.2,29.87,SSW,203,4.0,5.0,73,0.00,,,0.00,meteohub,2013-06-13 04:01:00,
2013-06-12 23:06:00,79.3,70.0,29.87,SSW,203,4.0,5.0,73,0.00,,,0.00,meteohub,2013-06-13 04:06:00,
2013-06-12 23:11:00,79.3,70.0,29.87,South,180,4.0,5.0,73,0.00,,,0.00,meteohub,2013-06-13 04:11:00,
2013-06-12 23:16:00,79.3,70.3,29.86,WSW,248,5.0,5.0,74,0.00,,,0.00,meteohub,2013-06-13 04:16:00,
2013-06-12 23:21:00,79.3,70.3,29.86,WSW,248,4.0,5.0,74,0.00,,,0.00,meteohub,2013-06-13 04:21:00,
2013-06-12 23:26:00,79.3,70.3,29.86,SSW,203,6.0,6.0,74,0.00,,,0.00,meteohub,2013-06-13 04:26:00,
2013-06-12 23:31:00,79.2,70.2,29.86,South,180,7.0,7.0,74,0.00,,,0.00,meteohub,2013-06-13 04:31:00,
2013-06-12 23:36:00,79.3,70.3,29.86,SSW,203,8.0,8.0,74,0.00,,,0.00,meteohub,2013-06-13 04:36:00,
2013-06-12 23:41:00,79.5,70.5,29.86,SW,225,6.0,8.0,74,0.00,,,0.00,meteohub,2013-06-13 04:41:00,
2013-06-12 23:46:00,79.5,70.5,29.86,SSW,203,6.0,8.0,74,0.00,,,0.00,meteohub,2013-06-13 04:46:00,
2013-06-12 23:51:00,79.7,70.7,29.86,South,180,7.0,8.0,74,0.00,,,0.00,meteohub,2013-06-13 04:51:00,
2013-06-12 23:56:00,79.5,70.5,29.87,SSW,203,6.0,10.0,74,0.00,,,0.00,meteohub,2013-06-13 04:56:00,